createdAt,value
2018-11-06T00:00:16.782Z,31.13
2018-11-06T00:02:45.807Z,32.17
2018-11-06T00:05:15.294Z,32.50
2018-11-06T00:07:44.301Z,31.53
2018-11-06T00:10:12.466Z,34.40
2018-11-06T00:12:40.970Z,36.43
2018-11-06T00:15:09.438Z,36.33
2018-11-06T00:17:37.852Z,37.20
2018-11-06T00:20:07.711Z,33.97
2018-11-06T00:22:35.986Z,39.57
2018-11-06T00:25:04.478Z,39.27
2018-11-06T00:27:32.619Z,38.50
2018-11-06T00:30:00.795Z,33.93
2018-11-06T00:32:28.925Z,32.33
2018-11-06T00:34:57.085Z,37.73
2018-11-06T00:37:25.218Z,36.80
2018-11-06T00:39:53.366Z,32.60
2018-11-06T00:42:21.497Z,32.17
2018-11-06T00:44:49.637Z,34.83
2018-11-06T00:47:17.774Z,30.73
2018-11-06T00:49:45.935Z,32.73
2018-11-06T00:52:14.078Z,28.87
2018-11-06T00:54:42.223Z,35.00
2018-11-06T00:57:10.354Z,35.30
2018-11-06T00:59:38.515Z,33.47
2018-11-06T01:02:06.802Z,32.23
2018-11-06T01:04:34.953Z,34.43
2018-11-06T01:07:03.081Z,37.83
2018-11-06T01:09:31.239Z,32.17
2018-11-06T01:11:59.376Z,30.10
2018-11-06T01:14:27.514Z,32.37
2018-11-06T01:16:55.662Z,31.57
2018-11-06T01:19:23.848Z,35.40
2018-11-06T01:21:51.985Z,32.80
2018-11-06T01:24:20.122Z,32.50
2018-11-06T01:26:48.269Z,33.30
2018-11-06T01:29:16.402Z,30.27
2018-11-06T01:31:44.554Z,29.50
2018-11-06T01:34:12.677Z,33.80
2018-11-06T01:36:40.827Z,30.07
2018-11-06T01:39:09.941Z,30.13
2018-11-06T01:41:38.082Z,28.23
2018-11-06T01:44:06.250Z,28.17
2018-11-06T01:46:34.393Z,27.47
2018-11-06T01:49:02.543Z,35.40
2018-11-06T01:51:30.681Z,26.27
2018-11-06T01:53:58.813Z,29.90
2018-11-06T01:56:26.958Z,26.90
2018-11-06T01:58:55.094Z,28.13
2018-11-06T02:01:24.369Z,29.63
2018-11-06T02:03:52.518Z,28.97
2018-11-06T02:06:20.662Z,29.97
2018-11-06T02:08:48.794Z,28.90
2018-11-06T02:11:16.946Z,29.27
2018-11-06T02:13:45.078Z,27.83
2018-11-06T02:16:13.218Z,23.20
2018-11-06T02:18:41.711Z,27.90
2018-11-06T02:21:09.845Z,31.43
2018-11-06T02:23:37.991Z,25.17
2018-11-06T02:26:06.138Z,25.03
2018-11-06T02:28:34.374Z,29.10
2018-11-06T02:31:02.519Z,26.83
2018-11-06T02:33:30.661Z,25.43
2018-11-06T02:35:58.810Z,26.07
2018-11-06T02:38:26.955Z,28.43
2018-11-06T02:40:55.098Z,24.07
2018-11-06T02:43:23.233Z,26.20
2018-11-06T02:45:51.403Z,25.40
2018-11-06T02:48:19.546Z,24.83
2018-11-06T02:50:47.675Z,27.60
2018-11-06T02:53:15.782Z,29.33
2018-11-06T02:55:43.980Z,26.07
2018-11-06T02:58:12.022Z,23.97
2018-11-06T03:00:40.126Z,25.20
2018-11-06T03:03:08.242Z,24.87
2018-11-06T03:05:36.345Z,23.43
2018-11-06T03:08:04.484Z,23.10
2018-11-06T03:10:32.649Z,24.10
2018-11-06T03:13:00.731Z,29.70
2018-11-06T03:15:28.850Z,28.00
2018-11-06T03:17:56.973Z,24.93
2018-11-06T03:20:25.117Z,24.40
2018-11-06T03:22:53.247Z,25.97
2018-11-06T03:25:21.358Z,23.70
2018-11-06T03:27:49.487Z,25.20
2018-11-06T03:30:17.611Z,26.30
2018-11-06T03:32:45.734Z,27.00
2018-11-06T03:35:14.610Z,27.27
2018-11-06T03:37:42.735Z,30.93
2018-11-06T03:40:11.370Z,23.87
2018-11-06T03:42:40.379Z,20.80
2018-11-06T03:45:09.153Z,27.53
2018-11-06T03:47:37.445Z,22.80
2018-11-06T03:50:06.248Z,23.60
2018-11-06T03:52:34.383Z,23.50
2018-11-06T03:55:02.531Z,24.70
2018-11-06T03:57:30.663Z,24.33
2018-11-06T03:59:58.787Z,26.20
2018-11-06T04:02:26.929Z,22.60
2018-11-06T04:04:55.057Z,23.33
2018-11-06T04:07:23.182Z,22.73
2018-11-06T04:09:51.310Z,21.43
2018-11-06T04:12:19.439Z,23.07
2018-11-06T04:14:47.565Z,23.20
2018-11-06T04:17:15.702Z,20.17
2018-11-06T04:19:43.853Z,24.03
2018-11-06T04:22:11.985Z,21.97
2018-11-06T04:24:40.132Z,22.30
2018-11-06T04:27:08.265Z,22.27
2018-11-06T04:29:36.410Z,26.87
2018-11-06T04:32:04.562Z,21.47
2018-11-06T04:34:32.702Z,28.13
2018-11-06T04:37:00.830Z,24.90
2018-11-06T04:39:28.979Z,22.40
2018-11-06T04:41:57.111Z,27.40
2018-11-06T04:44:25.250Z,24.17
2018-11-06T04:46:53.385Z,22.77
2018-11-06T04:49:21.884Z,24.23
2018-11-06T04:51:50.038Z,22.07
2018-11-06T04:54:18.197Z,27.47
2018-11-06T04:56:46.361Z,25.00
2018-11-06T04:59:14.539Z,32.53
2018-11-06T05:01:42.686Z,29.40
2018-11-06T05:04:10.839Z,41.07
2018-11-06T05:06:39.077Z,28.60
2018-11-06T05:09:08.231Z,29.93
2018-11-06T05:11:36.378Z,32.13
2018-11-06T05:14:04.541Z,31.20
2018-11-06T05:16:32.690Z,31.53
2018-11-06T05:19:00.849Z,27.53
2018-11-06T05:21:28.994Z,27.23
2018-11-06T05:23:57.237Z,30.37
2018-11-06T05:26:25.386Z,36.53
2018-11-06T05:28:53.542Z,33.63
2018-11-06T05:31:21.697Z,31.83
2018-11-06T05:33:49.866Z,29.23
2018-11-06T05:36:18.024Z,35.50
2018-11-06T05:38:46.189Z,36.50
2018-11-06T05:41:14.334Z,34.03
2018-11-06T05:43:42.497Z,37.83
2018-11-06T05:46:10.659Z,36.87
2018-11-06T05:48:38.802Z,41.37
2018-11-06T05:51:06.970Z,31.77
2018-11-06T05:53:35.133Z,38.53
2018-11-06T05:56:03.287Z,29.87
2018-11-06T05:58:31.430Z,32.80
2018-11-06T06:00:59.653Z,40.13
2018-11-06T06:03:27.807Z,30.83
2018-11-06T06:05:55.961Z,34.53
2018-11-06T06:08:24.149Z,33.67
2018-11-06T06:10:52.358Z,32.93
2018-11-06T06:13:20.458Z,33.30
2018-11-06T06:15:48.622Z,36.57
2018-11-06T06:18:16.774Z,37.50
2018-11-06T06:20:44.940Z,34.37
2018-11-06T06:23:13.091Z,31.27
2018-11-06T06:25:41.241Z,36.40
2018-11-06T06:28:09.391Z,37.10
2018-11-06T06:30:37.554Z,29.50
2018-11-06T06:33:05.758Z,28.87
2018-11-06T06:35:33.918Z,30.73
2018-11-06T06:38:02.076Z,31.27
2018-11-06T06:40:30.235Z,31.93
2018-11-06T06:42:58.392Z,33.23
2018-11-06T06:45:26.550Z,32.97
2018-11-06T06:47:54.707Z,30.43
2018-11-06T06:50:22.869Z,31.17
2018-11-06T06:52:50.993Z,37.20
2018-11-06T06:55:19.196Z,34.23
2018-11-06T06:57:48.246Z,33.43
2018-11-06T07:00:17.666Z,39.10
2018-11-06T07:02:45.842Z,31.70
2018-11-06T07:05:15.260Z,45.13
2018-11-06T07:07:43.827Z,36.97
2018-11-06T07:10:13.749Z,36.43
2018-11-06T07:12:42.969Z,36.47
2018-11-06T07:15:14.415Z,37.00
2018-11-06T07:17:43.094Z,34.77
2018-11-06T07:20:13.934Z,38.83
2018-11-06T07:22:42.075Z,34.27
2018-11-06T07:25:10.797Z,39.80
2018-11-06T07:27:39.687Z,35.87
2018-11-06T07:30:10.838Z,35.77
2018-11-06T07:32:39.414Z,45.50
2018-11-06T07:35:08.552Z,36.17
2018-11-06T07:37:36.794Z,34.17
2018-11-06T07:40:05.772Z,36.10
2018-11-06T07:42:33.907Z,34.97
2018-11-06T07:45:02.104Z,31.33
2018-11-06T07:47:30.529Z,35.47
2018-11-06T07:49:58.736Z,35.57
2018-11-06T07:52:26.885Z,38.83
2018-11-06T07:54:55.019Z,32.80
2018-11-06T07:57:23.171Z,41.57
2018-11-06T07:59:51.307Z,37.43
2018-11-06T08:02:19.456Z,35.53
2018-11-06T08:04:47.590Z,34.27
2018-11-06T08:07:15.743Z,35.33
2018-11-06T08:09:43.944Z,40.50
2018-11-06T08:12:12.030Z,37.40
2018-11-06T08:14:40.208Z,39.83
2018-11-06T08:17:08.313Z,39.63
2018-11-06T08:19:36.453Z,36.90
2018-11-06T08:22:04.602Z,38.27
2018-11-06T08:24:32.743Z,40.17
2018-11-06T08:27:00.882Z,47.03
2018-11-06T08:29:29.017Z,44.00
2018-11-06T08:31:57.446Z,42.00
2018-11-06T08:34:25.344Z,43.67
2018-11-06T08:36:53.601Z,37.90
2018-11-06T08:39:21.638Z,38.77
2018-11-06T08:41:49.781Z,41.90
2018-11-06T08:44:17.919Z,46.73
2018-11-06T08:46:46.060Z,36.53
2018-11-06T08:49:14.216Z,41.20
2018-11-06T08:51:42.363Z,42.10
2018-11-06T08:54:16.706Z,40.57
2018-11-06T08:56:44.848Z,40.17
2018-11-06T08:59:12.987Z,36.60
2018-11-06T09:01:41.178Z,34.67
2018-11-06T09:04:09.332Z,38.43
2018-11-06T09:06:37.474Z,32.63
2018-11-06T09:09:07.210Z,36.53
2018-11-06T09:11:35.363Z,34.40
2018-11-06T09:14:03.497Z,27.90
2018-11-06T09:16:31.655Z,33.23
2018-11-06T09:18:59.802Z,38.63
2018-11-06T09:21:27.966Z,32.57
2018-11-06T09:23:56.101Z,37.03
2018-11-06T09:26:24.253Z,35.20
2018-11-06T09:28:52.586Z,33.43
2018-11-06T09:31:20.741Z,31.00
2018-11-06T09:33:48.879Z,32.50
2018-11-06T09:36:17.024Z,32.60
2018-11-06T09:38:46.069Z,27.17
2018-11-06T09:41:14.212Z,30.30
2018-11-06T09:43:42.385Z,32.20
2018-11-06T09:46:10.531Z,33.70
2018-11-06T09:48:38.679Z,33.70
2018-11-06T09:51:06.825Z,33.63
2018-11-06T09:53:34.979Z,35.73
2018-11-06T09:56:03.118Z,34.20
2018-11-06T09:58:31.271Z,34.80
2018-11-06T10:00:59.401Z,41.00
2018-11-06T10:03:27.554Z,31.60
2018-11-06T10:05:55.690Z,29.73
2018-11-06T10:08:23.842Z,29.40
2018-11-06T10:10:51.987Z,26.83
2018-11-06T10:13:20.137Z,30.93
2018-11-06T10:15:48.332Z,30.13
2018-11-06T10:18:16.430Z,27.67
2018-11-06T10:20:44.577Z,28.70
2018-11-06T10:23:12.731Z,25.93
2018-11-06T10:25:40.872Z,27.87
2018-11-06T10:28:09.031Z,28.03
2018-11-06T10:30:37.219Z,30.23
2018-11-06T10:33:05.547Z,25.50
2018-11-06T10:35:33.691Z,30.10
2018-11-06T10:38:01.916Z,29.53
2018-11-06T10:40:29.998Z,24.33
2018-11-06T10:42:58.246Z,26.10
2018-11-06T10:45:26.391Z,23.77
2018-11-06T10:47:54.541Z,24.00
2018-11-06T10:50:22.693Z,21.73
2018-11-06T10:52:50.850Z,21.73
2018-11-06T10:55:18.991Z,17.77
2018-11-06T10:57:47.154Z,22.22
2018-11-06T11:00:20.706Z,19.07
2018-11-06T11:02:54.128Z,26.23
2018-11-06T11:05:24.118Z,22.10
2018-11-06T11:07:52.274Z,20.83
2018-11-06T11:10:20.445Z,20.53
2018-11-06T11:12:48.607Z,18.60
2018-11-06T11:15:16.748Z,18.03
2018-11-06T11:17:44.910Z,18.77
2018-11-06T11:20:14.271Z,25.10
2018-11-06T11:22:42.574Z,24.10
2018-11-06T11:25:15.053Z,15.83
2018-11-06T11:27:43.850Z,17.00
2018-11-06T11:30:13.343Z,18.27
2018-11-06T11:32:42.983Z,13.47
2018-11-06T11:35:11.441Z,16.77
2018-11-06T11:37:39.600Z,17.40
2018-11-06T11:40:09.025Z,16.30
2018-11-06T11:42:37.249Z,15.03
2018-11-06T11:45:06.582Z,17.73
2018-11-06T11:47:34.766Z,14.17
2018-11-06T11:50:02.995Z,16.40
2018-11-06T11:52:31.135Z,16.60
2018-11-06T11:54:59.375Z,14.80
2018-11-06T11:57:28.048Z,16.17
2018-11-06T11:59:56.185Z,20.30
2018-11-06T12:02:24.315Z,18.53
2018-11-06T12:04:52.490Z,17.33
2018-11-06T12:07:20.643Z,22.80
2018-11-06T12:09:48.781Z,12.00
2018-11-06T12:12:16.923Z,18.03
2018-11-06T12:14:45.094Z,12.70
2018-11-06T12:17:13.319Z,14.63
2018-11-06T12:19:41.424Z,17.83
2018-11-06T12:22:09.561Z,19.77
2018-11-06T12:24:37.764Z,14.53
2018-11-06T12:27:05.850Z,16.10
2018-11-06T12:29:34.008Z,17.40
2018-11-06T12:32:02.151Z,19.17
2018-11-06T12:34:30.311Z,18.40
2018-11-06T12:36:58.498Z,13.23
2018-11-06T12:39:26.618Z,14.77
2018-11-06T12:41:54.854Z,15.53
2018-11-06T12:44:22.987Z,14.50
2018-11-06T12:46:51.139Z,14.40
2018-11-06T12:49:19.393Z,13.40
2018-11-06T12:51:47.540Z,12.83
2018-11-06T12:54:15.698Z,16.77
2018-11-06T12:56:43.862Z,18.53
2018-11-06T12:59:12.027Z,15.03
2018-11-06T13:01:40.269Z,10.13
2018-11-06T13:04:08.426Z,12.07
2018-11-06T13:06:36.606Z,17.30
2018-11-06T13:09:07.484Z,17.73
2018-11-06T13:11:35.858Z,14.80
2018-11-06T13:14:04.038Z,14.20
2018-11-06T13:16:32.303Z,10.70
2018-11-06T13:19:00.447Z,15.13
2018-11-06T13:21:28.638Z,12.83
2018-11-06T13:23:56.841Z,13.23
2018-11-06T13:26:25.091Z,14.93
2018-11-06T13:28:53.137Z,14.73
2018-11-06T13:31:21.323Z,11.03
2018-11-06T13:33:49.491Z,10.80
2018-11-06T13:36:17.662Z,12.07
2018-11-06T13:38:45.817Z,13.57
2018-11-06T13:41:14.375Z,13.50
2018-11-06T13:43:42.763Z,15.40
2018-11-06T13:46:10.872Z,12.80
2018-11-06T13:48:39.026Z,21.07
2018-11-06T13:51:07.251Z,17.50
2018-11-06T13:53:35.409Z,14.90
2018-11-06T13:56:03.605Z,15.90
2018-11-06T13:58:31.762Z,14.80
2018-11-06T14:01:00.030Z,14.70
2018-11-06T14:03:28.170Z,12.63
2018-11-06T14:05:56.321Z,18.13
2018-11-06T14:08:24.476Z,9.50
2018-11-06T14:10:52.640Z,8.10
2018-11-06T14:13:20.782Z,14.50
2018-11-06T14:15:48.945Z,12.97
2018-11-06T14:18:17.130Z,15.70
2018-11-06T14:20:45.289Z,11.10
2018-11-06T14:23:13.438Z,12.03
2018-11-06T14:25:41.602Z,10.67
2018-11-06T14:28:09.754Z,14.67
2018-11-06T14:30:37.923Z,10.93
2018-11-06T14:33:06.117Z,11.13
2018-11-06T14:35:34.316Z,15.23
2018-11-06T14:38:02.502Z,12.70
2018-11-06T14:40:30.663Z,13.47
2018-11-06T14:42:58.881Z,22.03
2018-11-06T14:45:27.002Z,13.77
2018-11-06T14:47:55.213Z,17.53
2018-11-06T14:50:23.300Z,12.60
2018-11-06T14:52:51.434Z,15.40
2018-11-06T14:55:19.574Z,12.93
2018-11-06T14:57:47.730Z,12.67
2018-11-06T15:00:17.152Z,15.30
2018-11-06T15:02:46.566Z,11.57
2018-11-06T15:05:15.147Z,14.57
2018-11-06T15:07:43.838Z,14.37
2018-11-06T15:10:12.328Z,13.17
2018-11-06T15:12:40.551Z,13.67
2018-11-06T15:15:09.836Z,16.50
2018-11-06T15:17:37.963Z,14.40
2018-11-06T15:20:08.282Z,14.07
2018-11-06T15:22:36.428Z,12.73
2018-11-06T15:25:04.827Z,19.90
2018-11-06T15:27:32.967Z,14.27
2018-11-06T15:30:01.106Z,17.77
2018-11-06T15:32:29.252Z,17.07
2018-11-06T15:34:57.440Z,17.80
2018-11-06T15:37:25.582Z,18.03
2018-11-06T15:39:53.718Z,16.77
2018-11-06T15:42:21.858Z,16.27
2018-11-06T15:44:49.990Z,18.03
2018-11-06T15:47:18.134Z,18.57
2018-11-06T15:49:46.284Z,15.87
2018-11-06T15:52:14.461Z,18.73
2018-11-06T15:54:42.787Z,20.33
2018-11-06T15:57:10.806Z,22.50
2018-11-06T15:59:38.947Z,18.17
2018-11-06T16:02:07.195Z,19.47
2018-11-06T16:04:35.379Z,20.53
2018-11-06T16:07:03.579Z,20.13
2018-11-06T16:09:31.728Z,17.33
2018-11-06T16:11:59.855Z,18.30
2018-11-06T16:14:28.026Z,24.17
2018-11-06T16:16:56.188Z,26.60
2018-11-06T16:19:24.724Z,24.97
2018-11-06T16:21:52.851Z,19.23
2018-11-06T16:24:21.044Z,22.57
2018-11-06T16:26:49.191Z,24.00
2018-11-06T16:29:17.461Z,20.97
2018-11-06T16:31:45.586Z,19.93
2018-11-06T16:34:13.743Z,17.20
2018-11-06T16:36:41.931Z,21.80
2018-11-06T16:39:11.564Z,26.90
2018-11-06T16:41:40.146Z,27.33
2018-11-06T16:44:08.918Z,19.30
2018-11-06T16:46:37.095Z,20.57
2018-11-06T16:49:05.301Z,19.40
2018-11-06T16:51:39.418Z,23.23
2018-11-06T16:54:08.704Z,25.70
2018-11-06T16:56:36.892Z,25.37
2018-11-06T16:59:05.071Z,21.63
2018-11-06T17:01:33.294Z,23.00
2018-11-06T17:04:01.454Z,20.40
2018-11-06T17:06:39.851Z,28.13
2018-11-06T17:09:09.102Z,21.30
2018-11-06T17:11:37.504Z,26.60
2018-11-06T17:14:05.845Z,23.17
2018-11-06T17:16:34.370Z,23.13
2018-11-06T17:19:02.547Z,31.63
2018-11-06T17:21:30.723Z,27.23
2018-11-06T17:23:58.898Z,29.10
2018-11-06T17:26:27.094Z,26.00
2018-11-06T17:28:55.277Z,25.33
2018-11-06T17:31:23.448Z,31.87
2018-11-06T17:33:51.626Z,27.83
2018-11-06T17:36:19.804Z,26.93
2018-11-06T17:38:48.023Z,31.13
2018-11-06T17:41:16.202Z,35.27
2018-11-06T17:43:44.354Z,38.10
2018-11-06T17:46:12.525Z,39.27
2018-11-06T17:48:40.702Z,39.20
2018-11-06T17:51:08.914Z,41.23
2018-11-06T17:53:37.112Z,38.07
2018-11-06T17:56:05.498Z,35.37
2018-11-06T17:58:33.661Z,44.43
2018-11-06T18:01:01.839Z,40.77
2018-11-06T18:03:30.267Z,39.00
2018-11-06T18:05:58.453Z,36.60
2018-11-06T18:08:26.644Z,32.80
2018-11-06T18:10:54.815Z,39.17
2018-11-06T18:13:23.351Z,36.50
2018-11-06T18:15:51.520Z,39.27
2018-11-06T18:18:19.698Z,36.47
2018-11-06T18:20:47.862Z,52.30
2018-11-06T18:23:16.043Z,39.37
2018-11-06T18:25:44.369Z,40.90
2018-11-06T18:28:12.389Z,36.50
2018-11-06T18:30:40.597Z,31.20
2018-11-06T18:33:08.767Z,31.70
2018-11-06T18:35:36.963Z,35.33
2018-11-06T18:38:05.195Z,33.93
2018-11-06T18:40:33.361Z,32.20
2018-11-06T18:43:01.665Z,30.23
2018-11-06T18:45:29.815Z,27.57
2018-11-06T18:47:58.112Z,36.80
2018-11-06T18:50:26.327Z,47.97
2018-11-06T18:52:54.554Z,40.77
2018-11-06T18:55:22.746Z,42.63
2018-11-06T18:57:50.967Z,48.20
2018-11-06T19:00:20.402Z,49.80
2018-11-06T19:02:49.909Z,43.47
2018-11-06T19:05:18.922Z,49.10
2018-11-06T19:07:47.525Z,55.93
2018-11-06T19:10:16.273Z,54.10
2018-11-06T19:12:44.678Z,55.40
2018-11-06T19:15:15.185Z,62.60
2018-11-06T19:17:44.406Z,55.20
2018-11-06T19:20:13.140Z,55.97
2018-11-06T19:22:41.382Z,52.77
2018-11-06T19:25:10.580Z,49.80
2018-11-06T19:27:38.959Z,53.00
2018-11-06T19:30:10.109Z,46.17
2018-11-06T19:32:38.696Z,48.50
2018-11-06T19:35:06.909Z,43.23
2018-11-06T19:37:35.074Z,43.60
2018-11-06T19:40:03.323Z,43.70
2018-11-06T19:42:31.560Z,42.63
2018-11-06T19:44:59.690Z,36.07
2018-11-06T19:47:27.951Z,38.73
2018-11-06T19:49:56.077Z,39.80
2018-11-06T19:52:24.357Z,53.13
2018-11-06T19:54:52.528Z,57.87
2018-11-06T19:57:20.803Z,53.00
2018-11-06T19:59:49.011Z,56.47
2018-11-06T20:02:17.247Z,61.20
2018-11-06T20:04:45.398Z,75.37
2018-11-06T20:07:13.584Z,85.83
2018-11-06T20:09:41.832Z,101.17
2018-11-06T20:12:09.984Z,74.63
2018-11-06T20:14:38.159Z,74.67
2018-11-06T20:17:06.355Z,80.23
2018-11-06T20:19:34.586Z,79.90
2018-11-06T20:22:02.733Z,79.23
2018-11-06T20:24:30.907Z,75.53
2018-11-06T20:26:59.143Z,90.17
2018-11-06T20:29:27.449Z,86.33
2018-11-06T20:31:55.623Z,88.93
2018-11-06T20:34:23.791Z,90.50
2018-11-06T20:36:51.987Z,81.90
2018-11-06T20:39:20.174Z,75.13
2018-11-06T20:41:48.411Z,76.97
2018-11-06T20:44:16.582Z,62.43
2018-11-06T20:46:44.759Z,73.50
2018-11-06T20:49:12.938Z,66.60
2018-11-06T20:51:41.134Z,61.80
2018-11-06T20:54:09.302Z,47.07
2018-11-06T20:56:37.510Z,48.87
2018-11-06T20:59:06.309Z,52.07
2018-11-06T21:01:34.479Z,45.03
2018-11-06T21:04:02.735Z,38.50
2018-11-06T21:06:30.920Z,45.07
2018-11-06T21:08:59.086Z,34.30
2018-11-06T21:11:27.254Z,30.33
2018-11-06T21:13:55.445Z,31.17
2018-11-06T21:16:23.618Z,31.87
2018-11-06T21:18:51.808Z,29.50
2018-11-06T21:21:19.982Z,25.73
2018-11-06T21:23:48.200Z,26.50
2018-11-06T21:26:16.555Z,25.83
2018-11-06T21:28:44.565Z,24.87
2018-11-06T21:31:12.779Z,24.47
2018-11-06T21:33:41.058Z,24.30
2018-11-06T21:36:09.226Z,24.60
2018-11-06T21:38:37.390Z,22.43
2018-11-06T21:41:05.627Z,25.10
2018-11-06T21:43:33.880Z,22.70
2018-11-06T21:46:02.097Z,19.90
2018-11-06T21:48:30.267Z,23.47
2018-11-06T21:50:58.516Z,19.57
2018-11-06T21:53:26.665Z,23.23
2018-11-06T21:55:54.858Z,24.47
2018-11-06T21:58:23.017Z,24.00
2018-11-06T22:00:51.276Z,24.50
2018-11-06T22:03:19.452Z,22.67
2018-11-06T22:05:47.619Z,28.10
2018-11-06T22:08:15.799Z,23.97
2018-11-06T22:10:43.987Z,23.43
2018-11-06T22:13:12.283Z,27.80
2018-11-06T22:15:40.421Z,25.07
2018-11-06T22:18:08.591Z,24.33
2018-11-06T22:20:36.859Z,26.50
2018-11-06T22:23:05.318Z,23.67
2018-11-06T22:25:33.541Z,21.30
2018-11-06T22:28:01.797Z,22.87
2018-11-06T22:30:29.933Z,22.40
2018-11-06T22:32:58.170Z,19.90
2018-11-06T22:35:26.314Z,22.90
2018-11-06T22:37:54.501Z,23.60
2018-11-06T22:40:22.655Z,21.37
2018-11-06T22:42:50.862Z,21.63
2018-11-06T22:45:19.030Z,20.40
2018-11-06T22:47:47.185Z,20.23
2018-11-06T22:50:16.475Z,20.13
2018-11-06T22:52:45.313Z,23.73
2018-11-06T22:55:13.655Z,21.73
2018-11-06T22:57:41.938Z,19.67
2018-11-06T23:00:13.170Z,18.73
2018-11-06T23:02:41.775Z,21.80
2018-11-06T23:05:09.918Z,21.10
2018-11-06T23:07:43.590Z,22.93
2018-11-06T23:10:12.131Z,22.20
2018-11-06T23:12:40.447Z,21.70
2018-11-06T23:15:08.595Z,23.20
2018-11-06T23:17:36.734Z,18.10
2018-11-06T23:20:05.624Z,21.50
2018-11-06T23:22:33.773Z,21.60
2018-11-06T23:25:02.027Z,16.47
2018-11-06T23:27:30.058Z,22.60
2018-11-06T23:29:58.207Z,23.57
2018-11-06T23:32:26.355Z,29.40
2018-11-06T23:34:54.507Z,26.40
2018-11-06T23:37:22.690Z,23.10
2018-11-06T23:39:51.081Z,20.87
2018-11-06T23:42:19.237Z,21.20
2018-11-06T23:44:47.380Z,21.07
2018-11-06T23:47:15.521Z,16.70
2018-11-06T23:49:43.686Z,17.10
2018-11-06T23:52:11.862Z,21.30
2018-11-06T23:54:40.010Z,16.60
2018-11-06T23:57:08.170Z,20.67
2018-11-06T23:59:36.338Z,20.70
